createdAt,value
2023-05-14T00:02:18.249Z,15.27
2023-05-14T00:04:48.225Z,15.28
2023-05-14T00:07:17.195Z,15.32
2023-05-14T00:09:45.915Z,15.35
2023-05-14T00:12:14.985Z,15.39
2023-05-14T00:14:43.316Z,15.43
2023-05-14T00:17:11.907Z,15.44
2023-05-14T00:19:42.333Z,15.48
2023-05-14T00:22:12.921Z,15.50
2023-05-14T00:24:41.406Z,15.55
2023-05-14T00:27:10.546Z,15.59
2023-05-14T00:29:38.867Z,15.61
2023-05-14T00:32:08.265Z,15.61
2023-05-14T00:34:37.190Z,15.59
2023-05-14T00:37:05.661Z,15.62
2023-05-14T00:39:35.600Z,15.62
2023-05-14T00:42:28.288Z,15.62
2023-05-14T00:44:56.611Z,15.61
2023-05-14T00:47:25.945Z,15.59
2023-05-14T00:49:54.720Z,15.55
2023-05-14T00:52:23.281Z,15.48
2023-05-14T00:54:53.631Z,15.39
2023-05-14T00:57:22.191Z,15.30
2023-05-14T00:59:50.960Z,15.23
2023-05-14T01:02:19.723Z,15.20
2023-05-14T01:04:48.157Z,15.23
2023-05-14T01:07:24.590Z,15.24
2023-05-14T01:10:01.753Z,15.23
2023-05-14T01:12:38.396Z,15.17
2023-05-14T01:15:12.606Z,15.11
2023-05-14T01:17:44.764Z,15.03
2023-05-14T01:20:13.955Z,15.00
2023-05-14T01:22:43.965Z,14.96
2023-05-14T01:25:12.334Z,14.89
2023-05-14T01:27:49.312Z,14.88
2023-05-14T01:30:23.848Z,14.91
2023-05-14T01:32:57.139Z,14.98
2023-05-14T01:35:28.406Z,15.02
2023-05-14T01:38:00.820Z,15.07
2023-05-14T01:40:29.547Z,15.09
2023-05-14T01:42:58.593Z,15.11
2023-05-14T01:45:26.966Z,15.11
2023-05-14T01:47:55.160Z,15.01
2023-05-14T01:50:23.633Z,14.96
2023-05-14T01:52:53.612Z,14.97
2023-05-14T01:55:23.861Z,14.95
2023-05-14T01:57:52.324Z,14.94
2023-05-14T02:00:20.930Z,14.96
2023-05-14T02:02:49.112Z,14.99
2023-05-14T02:05:17.363Z,15.01
2023-05-14T02:07:45.499Z,15.03
2023-05-14T02:10:13.719Z,15.00
2023-05-14T02:12:43.275Z,14.95
2023-05-14T02:15:12.055Z,14.89
2023-05-14T02:17:40.273Z,14.85
2023-05-14T02:20:10.450Z,14.82
2023-05-14T02:22:42.305Z,14.83
2023-05-14T02:25:11.438Z,14.85
2023-05-14T02:27:39.538Z,14.89
2023-05-14T02:30:10.612Z,14.92
2023-05-14T02:32:39.400Z,14.95
2023-05-14T02:35:08.593Z,14.98
2023-05-14T02:37:36.801Z,15.02
2023-05-14T02:40:05.435Z,15.05
2023-05-14T02:42:33.525Z,15.03
2023-05-14T02:45:01.654Z,15.00
2023-05-14T02:47:31.250Z,14.95
2023-05-14T02:49:59.538Z,14.83
2023-05-14T02:52:27.818Z,14.79
2023-05-14T02:54:55.979Z,14.69
2023-05-14T02:57:24.028Z,14.65
2023-05-14T02:59:52.207Z,14.61
2023-05-14T03:02:20.839Z,14.57
2023-05-14T03:04:50.661Z,14.56
2023-05-14T03:07:18.821Z,14.61
2023-05-14T03:09:46.979Z,14.63
2023-05-14T03:12:15.235Z,14.64
2023-05-14T03:14:43.327Z,14.65
2023-05-14T03:17:11.774Z,14.59
2023-05-14T03:19:39.982Z,14.55
2023-05-14T03:22:09.588Z,14.56
2023-05-14T03:24:41.063Z,14.57
2023-05-14T03:27:09.235Z,14.59
2023-05-14T03:29:37.392Z,14.61
2023-05-14T03:32:06.252Z,14.61
2023-05-14T03:34:34.458Z,14.55
2023-05-14T03:37:02.972Z,14.49
2023-05-14T03:39:32.534Z,14.48
2023-05-14T03:42:00.694Z,14.50
2023-05-14T03:44:28.799Z,14.53
2023-05-14T03:46:57.253Z,14.58
2023-05-14T03:49:25.417Z,14.63
2023-05-14T03:51:53.525Z,14.68
2023-05-14T03:54:21.670Z,14.72
2023-05-14T03:56:51.155Z,14.75
2023-05-14T03:59:19.356Z,14.77
2023-05-14T04:01:47.478Z,14.81
2023-05-14T04:04:15.758Z,14.85
2023-05-14T04:06:43.974Z,14.86
2023-05-14T04:09:12.143Z,14.87
2023-05-14T04:11:40.244Z,14.88
2023-05-14T04:14:09.759Z,14.88
2023-05-14T04:16:37.891Z,14.90
2023-05-14T04:19:06.139Z,14.92
2023-05-14T04:21:34.360Z,14.96
2023-05-14T04:24:02.529Z,14.98
2023-05-14T04:26:30.615Z,14.97
2023-05-14T04:29:02.868Z,14.96
2023-05-14T04:31:32.894Z,14.94
2023-05-14T04:34:01.138Z,14.96
2023-05-14T04:36:29.214Z,14.98
2023-05-14T04:38:57.269Z,15.01
2023-05-14T04:41:25.548Z,15.03
2023-05-14T04:43:57.216Z,15.00
2023-05-14T04:46:25.411Z,14.97
2023-05-14T04:48:55.043Z,14.93
2023-05-14T04:51:23.202Z,14.91
2023-05-14T04:53:51.384Z,14.91
2023-05-14T04:56:19.473Z,14.92
2023-05-14T04:58:47.658Z,14.94
2023-05-14T05:01:16.277Z,14.96
2023-05-14T05:03:44.583Z,14.97
2023-05-14T05:06:14.196Z,14.97
2023-05-14T05:08:42.464Z,14.98
2023-05-14T05:11:10.579Z,14.99
2023-05-14T05:13:38.711Z,14.96
2023-05-14T05:16:07.467Z,14.98
2023-05-14T05:18:35.653Z,14.99
2023-05-14T05:21:03.937Z,15.01
2023-05-14T05:23:33.581Z,15.03
2023-05-14T05:26:01.795Z,15.06
2023-05-14T05:28:30.099Z,15.07
2023-05-14T05:30:58.405Z,15.09
2023-05-14T05:33:26.866Z,15.15
2023-05-14T05:35:55.053Z,15.21
2023-05-14T05:38:23.357Z,15.25
2023-05-14T05:40:53.017Z,15.30
2023-05-14T05:43:21.158Z,15.36
2023-05-14T05:45:49.346Z,15.41
2023-05-14T05:48:17.521Z,15.44
2023-05-14T05:50:48.443Z,15.49
2023-05-14T05:53:16.940Z,15.52
2023-05-14T05:55:45.128Z,15.54
2023-05-14T05:58:17.363Z,15.48
2023-05-14T06:00:45.831Z,15.37
2023-05-14T06:03:14.746Z,15.31
2023-05-14T06:05:42.917Z,15.29
2023-05-14T06:08:11.074Z,15.32
2023-05-14T06:10:39.296Z,15.39
2023-05-14T06:13:07.450Z,15.46
2023-05-14T06:15:36.975Z,15.54
2023-05-14T06:18:05.910Z,15.61
2023-05-14T06:20:34.177Z,15.68
2023-05-14T06:23:02.300Z,15.73
2023-05-14T06:25:30.394Z,15.79
2023-05-14T06:27:58.567Z,15.84
2023-05-14T06:30:26.935Z,15.90
2023-05-14T06:32:56.639Z,16.01
2023-05-14T06:35:25.332Z,16.19
2023-05-14T06:37:53.420Z,16.35
2023-05-14T06:40:22.031Z,16.60
2023-05-14T06:42:50.580Z,16.93
2023-05-14T06:45:18.884Z,17.24
2023-05-14T06:47:47.168Z,17.53
2023-05-14T06:50:16.896Z,17.69
2023-05-14T06:52:45.291Z,17.78
2023-05-14T06:55:13.465Z,17.86
2023-05-14T06:57:41.572Z,17.87
2023-05-14T07:00:10.850Z,17.84
2023-05-14T07:02:39.058Z,17.72
2023-05-14T07:05:08.718Z,17.68
2023-05-14T07:07:38.248Z,17.65
2023-05-14T07:10:08.262Z,17.65
2023-05-14T07:12:36.520Z,17.59
2023-05-14T07:15:05.161Z,17.57
2023-05-14T07:17:33.414Z,17.57
2023-05-14T07:20:01.560Z,17.59
2023-05-14T07:22:29.695Z,17.58
2023-05-14T07:24:59.359Z,17.44
2023-05-14T07:27:27.530Z,17.39
2023-05-14T07:29:55.790Z,17.43
2023-05-14T07:32:25.187Z,17.39
2023-05-14T07:34:53.437Z,17.20
2023-05-14T07:37:24.014Z,17.01
2023-05-14T07:39:52.554Z,16.96
2023-05-14T07:42:34.422Z,16.96
2023-05-14T07:45:04.082Z,16.94
2023-05-14T07:47:32.487Z,17.04
2023-05-14T07:50:01.199Z,17.18
2023-05-14T07:52:29.420Z,17.33
2023-05-14T07:54:57.634Z,17.59
2023-05-14T07:57:27.473Z,17.87
2023-05-14T07:59:55.635Z,18.12
2023-05-14T08:02:23.974Z,18.43
2023-05-14T08:04:52.191Z,18.49
2023-05-14T08:07:20.979Z,18.54
2023-05-14T08:09:49.118Z,18.55
2023-05-14T08:12:17.634Z,18.53
2023-05-14T08:14:47.227Z,18.41
2023-05-14T08:17:15.504Z,18.45
2023-05-14T08:19:43.694Z,18.56
2023-05-14T08:22:11.828Z,18.67
2023-05-14T08:24:40.245Z,18.77
2023-05-14T08:27:08.427Z,19.05
2023-05-14T08:29:37.170Z,19.41
2023-05-14T08:32:19.272Z,19.80
2023-05-14T08:34:50.855Z,21.13
2023-05-14T08:37:19.234Z,22.63
2023-05-14T08:39:47.649Z,23.94
2023-05-14T08:42:19.553Z,25.96
2023-05-14T08:44:50.377Z,27.28
2023-05-14T08:47:22.760Z,29.01
2023-05-14T08:49:56.538Z,29.66
2023-05-14T08:52:24.804Z,30.74
2023-05-14T08:54:55.326Z,31.92
2023-05-14T08:57:26.831Z,32.77
2023-05-14T08:59:55.967Z,32.54
2023-05-14T09:02:30.292Z,31.76
2023-05-14T09:05:00.281Z,30.72
2023-05-14T09:07:29.439Z,29.40
2023-05-14T09:09:57.737Z,28.00
2023-05-14T09:12:26.419Z,26.85
2023-05-14T09:14:54.676Z,26.13
2023-05-14T09:17:23.263Z,25.64
2023-05-14T09:19:53.328Z,25.44
2023-05-14T09:22:22.688Z,24.81
2023-05-14T09:25:05.338Z,23.73
2023-05-14T09:27:34.309Z,22.93
2023-05-14T09:30:10.586Z,22.32
2023-05-14T09:32:40.303Z,21.91
2023-05-14T09:35:17.646Z,21.70
2023-05-14T09:37:48.217Z,21.69
2023-05-14T09:40:17.739Z,21.78
2023-05-14T09:42:46.052Z,21.87
2023-05-14T09:45:14.562Z,22.23
2023-05-14T09:47:43.494Z,24.10
2023-05-14T09:50:13.801Z,24.67
2023-05-14T09:52:41.977Z,25.00
2023-05-14T09:55:11.226Z,25.66
2023-05-14T09:57:39.482Z,26.58
2023-05-14T10:00:10.371Z,28.10
2023-05-14T10:02:41.351Z,28.82
2023-05-14T10:05:10.665Z,29.01
2023-05-14T10:07:43.464Z,29.44
2023-05-14T10:10:16.669Z,29.49
2023-05-14T10:12:49.220Z,29.92
2023-05-14T10:15:21.151Z,29.67
2023-05-14T10:17:52.591Z,29.22
2023-05-14T10:20:22.300Z,28.67
2023-05-14T10:22:52.521Z,27.95
2023-05-14T10:25:21.023Z,27.48
2023-05-14T10:27:49.209Z,27.23
2023-05-14T10:30:17.614Z,26.76
2023-05-14T10:32:45.746Z,26.42
2023-05-14T10:35:18.187Z,26.14
2023-05-14T10:37:47.319Z,25.96
2023-05-14T10:40:18.630Z,25.69
2023-05-14T10:42:48.051Z,25.42
2023-05-14T10:45:16.999Z,25.17
2023-05-14T10:47:47.556Z,24.95
2023-05-14T10:50:17.654Z,24.70
2023-05-14T10:52:46.972Z,24.52
2023-05-14T10:55:17.929Z,24.27
2023-05-14T10:57:47.852Z,24.05
2023-05-14T11:00:17.156Z,24.03
2023-05-14T11:02:46.071Z,24.14
2023-05-14T11:05:17.268Z,24.36
2023-05-14T11:07:48.117Z,24.36
2023-05-14T11:10:18.919Z,24.36
2023-05-14T11:12:49.200Z,24.55
2023-05-14T11:15:19.313Z,24.65
2023-05-14T11:17:48.851Z,24.74
2023-05-14T11:20:18.230Z,24.71
2023-05-14T11:22:48.395Z,24.60
2023-05-14T11:25:18.874Z,24.52
2023-05-14T11:27:48.329Z,24.37
2023-05-14T11:30:18.237Z,24.22
2023-05-14T11:32:47.640Z,24.03
2023-05-14T11:35:16.562Z,23.82
2023-05-14T11:37:45.200Z,23.66
2023-05-14T11:40:18.137Z,23.59
2023-05-14T11:42:46.559Z,23.61
2023-05-14T11:45:15.651Z,23.56
2023-05-14T11:47:43.831Z,23.45
2023-05-14T11:50:12.507Z,23.30
2023-05-14T11:52:41.645Z,23.17
2023-05-14T11:55:13.584Z,23.14
2023-05-14T11:57:44.004Z,23.13
2023-05-14T12:00:16.959Z,23.14
2023-05-14T12:02:45.516Z,23.10
2023-05-14T12:05:14.849Z,23.12
2023-05-14T12:07:46.161Z,23.12
2023-05-14T12:10:14.688Z,23.09
2023-05-14T12:12:48.226Z,23.13
2023-05-14T12:15:18.485Z,23.17
2023-05-14T12:17:52.744Z,23.14
2023-05-14T12:20:22.435Z,23.17
2023-05-14T12:22:51.173Z,23.11
2023-05-14T12:25:20.087Z,23.07
2023-05-14T12:27:51.490Z,23.10
2023-05-14T12:30:21.918Z,23.17
2023-05-14T12:32:53.311Z,23.37
2023-05-14T12:35:22.947Z,23.49
2023-05-14T12:37:51.986Z,23.71
2023-05-14T12:40:20.245Z,23.88
2023-05-14T12:42:49.819Z,23.89
2023-05-14T12:45:18.005Z,23.77
2023-05-14T12:47:46.495Z,23.57
2023-05-14T12:50:14.731Z,23.31
2023-05-14T12:52:42.984Z,22.96
2023-05-14T12:55:11.495Z,22.61
2023-05-14T12:57:40.178Z,22.30
2023-05-14T13:00:13.874Z,22.10
2023-05-14T13:02:43.949Z,21.87
2023-05-14T13:05:12.897Z,21.67
2023-05-14T13:07:41.196Z,21.53
2023-05-14T13:10:10.393Z,21.50
2023-05-14T13:12:38.911Z,21.53
2023-05-14T13:15:09.921Z,21.65
2023-05-14T13:17:38.219Z,21.75
2023-05-14T13:20:07.401Z,21.90
2023-05-14T13:22:35.536Z,22.09
2023-05-14T13:25:05.037Z,22.34
2023-05-14T13:27:33.813Z,22.67
2023-05-14T13:30:01.928Z,22.98
2023-05-14T13:32:31.484Z,23.14
2023-05-14T13:34:59.669Z,23.15
2023-05-14T13:37:27.948Z,22.99
2023-05-14T13:39:56.181Z,22.82
2023-05-14T13:42:24.292Z,22.71
2023-05-14T13:44:52.462Z,22.69
2023-05-14T13:47:20.681Z,22.73
2023-05-14T13:49:50.309Z,22.73
2023-05-14T13:52:18.370Z,22.65
2023-05-14T13:54:46.849Z,22.58
2023-05-14T13:57:15.488Z,22.55
2023-05-14T13:59:43.753Z,22.61
2023-05-14T14:02:11.896Z,22.69
2023-05-14T14:04:40.024Z,22.80
2023-05-14T14:07:09.544Z,22.74
2023-05-14T14:09:37.692Z,22.72
2023-05-14T14:12:06.673Z,22.72
2023-05-14T14:14:34.904Z,22.64
2023-05-14T14:17:03.114Z,22.56
2023-05-14T14:19:31.288Z,22.48
2023-05-14T14:21:59.409Z,22.47
2023-05-14T14:24:29.013Z,22.52
2023-05-14T14:26:57.239Z,22.56
2023-05-14T14:29:25.370Z,22.54
2023-05-14T14:31:53.541Z,22.48
2023-05-14T14:34:21.927Z,22.44
2023-05-14T14:36:50.045Z,22.40
2023-05-14T14:39:18.206Z,22.34
2023-05-14T14:41:47.748Z,22.21
2023-05-14T14:44:15.857Z,22.04
2023-05-14T14:46:44.174Z,21.87
2023-05-14T14:49:12.316Z,21.67
2023-05-14T14:51:40.841Z,21.52
2023-05-14T14:54:08.977Z,21.35
2023-05-14T14:56:37.182Z,21.27
2023-05-14T14:59:06.728Z,21.22
2023-05-14T15:01:34.907Z,21.17
2023-05-14T15:04:03.144Z,21.09
2023-05-14T15:06:31.333Z,21.03
2023-05-14T15:08:59.759Z,21.09
2023-05-14T15:11:29.022Z,21.20
2023-05-14T15:13:57.223Z,21.30
2023-05-14T15:16:26.965Z,21.44
2023-05-14T15:18:55.418Z,21.51
2023-05-14T15:21:23.752Z,21.55
2023-05-14T15:23:51.981Z,21.68
2023-05-14T15:26:20.115Z,21.83
2023-05-14T15:28:48.337Z,22.09
2023-05-14T15:31:17.012Z,22.31
2023-05-14T15:33:46.642Z,22.39
2023-05-14T15:36:15.180Z,22.54
2023-05-14T15:38:43.529Z,22.66
2023-05-14T15:41:11.609Z,22.67
2023-05-14T15:43:39.850Z,22.65
2023-05-14T15:46:08.098Z,22.57
2023-05-14T15:48:36.463Z,22.46
2023-05-14T15:51:06.419Z,22.43
2023-05-14T15:53:34.576Z,22.43
2023-05-14T15:56:02.753Z,22.45
2023-05-14T15:58:30.981Z,22.58
2023-05-14T16:00:59.178Z,22.69
2023-05-14T16:03:27.488Z,22.78
2023-05-14T16:05:56.446Z,22.81
2023-05-14T16:08:26.132Z,22.84
2023-05-14T16:10:54.402Z,22.80
2023-05-14T16:13:22.918Z,22.74
2023-05-14T16:15:51.715Z,22.67
2023-05-14T16:18:20.065Z,22.72
2023-05-14T16:20:48.736Z,22.83
2023-05-14T16:23:17.009Z,22.84
2023-05-14T16:25:46.663Z,22.77
2023-05-14T16:28:15.275Z,22.66
2023-05-14T16:30:43.543Z,22.66
2023-05-14T16:33:12.023Z,22.63
2023-05-14T16:35:40.590Z,22.56
2023-05-14T16:38:08.855Z,22.45
2023-05-14T16:40:37.083Z,22.33
2023-05-14T16:43:06.877Z,22.24
2023-05-14T16:48:06.321Z,22.15
2023-05-14T16:50:34.553Z,22.20
2023-05-14T16:53:02.879Z,22.15
2023-05-14T16:55:31.179Z,22.01
2023-05-14T16:57:59.477Z,21.86
2023-05-14T17:00:30.575Z,21.83
2023-05-14T17:02:59.438Z,21.94
2023-05-14T17:05:29.579Z,22.09
2023-05-14T17:07:57.824Z,22.23
2023-05-14T17:10:26.635Z,22.20
2023-05-14T17:12:54.826Z,22.09
2023-05-14T17:15:23.446Z,21.87
2023-05-14T17:17:53.453Z,21.65
2023-05-14T17:20:21.843Z,21.40
2023-05-14T17:22:50.080Z,21.16
2023-05-14T17:25:18.459Z,21.00
2023-05-14T17:27:46.611Z,20.86
2023-05-14T17:30:15.073Z,20.74
2023-05-14T17:32:43.302Z,20.64
2023-05-14T17:35:12.973Z,20.52
2023-05-14T17:37:42.871Z,20.40
2023-05-14T17:40:11.910Z,20.31
2023-05-14T17:42:40.080Z,20.21
2023-05-14T17:45:09.933Z,20.10
2023-05-14T17:47:38.207Z,20.04
2023-05-14T17:50:07.475Z,19.99
2023-05-14T17:52:37.814Z,19.93
2023-05-14T17:55:06.983Z,19.84
2023-05-14T17:57:35.159Z,19.76
2023-05-14T18:00:04.831Z,19.75
2023-05-14T18:02:33.004Z,19.72
2023-05-14T18:05:02.735Z,19.68
2023-05-14T18:07:31.284Z,19.64
2023-05-14T18:10:00.960Z,19.67
2023-05-14T18:12:29.459Z,19.63
2023-05-14T18:14:57.553Z,19.63
2023-05-14T18:17:25.774Z,19.58
2023-05-14T18:19:54.007Z,19.52
2023-05-14T18:22:22.527Z,19.46
2023-05-14T18:24:50.723Z,19.39
2023-05-14T18:27:20.433Z,19.32
2023-05-14T18:29:48.633Z,19.25
2023-05-14T18:32:16.828Z,19.19
2023-05-14T18:34:45.019Z,19.15
2023-05-14T18:37:13.766Z,19.07
2023-05-14T18:39:42.002Z,18.98
2023-05-14T18:42:10.811Z,18.91
2023-05-14T18:44:45.117Z,18.83
2023-05-14T18:47:13.899Z,18.66
2023-05-14T18:49:42.708Z,18.51
2023-05-14T18:52:11.324Z,18.47
2023-05-14T18:54:40.325Z,18.45
2023-05-14T18:57:09.466Z,18.44
2023-05-14T18:59:38.487Z,18.44
2023-05-14T19:02:08.570Z,18.42
2023-05-14T19:04:50.679Z,18.41
2023-05-14T19:07:19.689Z,18.34
2023-05-14T19:09:47.786Z,18.19
2023-05-14T19:12:16.441Z,18.01
2023-05-14T19:14:44.749Z,17.87
2023-05-14T19:17:14.454Z,17.78
2023-05-14T19:19:43.399Z,17.76
2023-05-14T19:22:13.766Z,17.81
2023-05-14T19:24:42.167Z,17.88
2023-05-14T19:27:16.889Z,17.85
2023-05-14T19:29:45.942Z,17.78
2023-05-14T19:32:15.581Z,17.79
2023-05-14T19:34:43.781Z,17.80
2023-05-14T19:37:12.249Z,17.81
2023-05-14T19:39:40.402Z,17.76
2023-05-14T19:42:08.999Z,17.75
2023-05-14T19:44:37.150Z,17.76
2023-05-14T19:47:05.799Z,17.72
2023-05-14T19:49:35.726Z,17.68
2023-05-14T19:52:03.908Z,17.62
2023-05-14T19:54:32.140Z,17.58
2023-05-14T19:57:00.353Z,17.56
2023-05-14T19:59:29.801Z,17.52
2023-05-14T20:01:58.085Z,17.47
2023-05-14T20:04:26.466Z,17.47
2023-05-14T20:06:57.077Z,17.48
2023-05-14T20:09:25.378Z,17.49
2023-05-14T20:11:54.132Z,17.52
2023-05-14T20:14:22.353Z,17.52
2023-05-14T20:16:50.905Z,17.46
2023-05-14T20:19:21.483Z,17.34
2023-05-14T20:21:50.213Z,17.30
2023-05-14T20:24:19.745Z,17.30
2023-05-14T20:26:48.033Z,17.30
2023-05-14T20:29:16.147Z,17.29
2023-05-14T20:31:44.385Z,17.26
2023-05-14T20:34:12.624Z,17.27
2023-05-14T20:36:41.936Z,17.26
2023-05-14T20:39:10.347Z,17.29
2023-05-14T20:41:39.968Z,17.32
2023-05-14T20:44:08.643Z,17.35
2023-05-14T20:46:36.840Z,17.39
2023-05-14T20:49:05.070Z,17.40
2023-05-14T20:51:33.233Z,17.40
2023-05-14T20:54:01.578Z,17.38
2023-05-14T20:56:30.443Z,17.39
2023-05-14T20:58:59.999Z,17.38
2023-05-14T21:01:28.068Z,17.36
2023-05-14T21:03:56.232Z,17.31
2023-05-14T21:06:24.475Z,17.22
2023-05-14T21:08:52.584Z,17.19
2023-05-14T21:11:21.433Z,17.16
2023-05-14T21:13:49.536Z,17.13
2023-05-14T21:16:20.038Z,17.14
2023-05-14T21:18:48.273Z,17.12
2023-05-14T21:21:16.441Z,17.09
2023-05-14T21:23:44.639Z,17.02
2023-05-14T21:26:12.765Z,16.96
2023-05-14T21:28:40.945Z,16.90
2023-05-14T21:31:09.205Z,16.84
2023-05-14T21:33:38.830Z,16.78
2023-05-14T21:36:07.959Z,16.72
2023-05-14T21:38:36.516Z,16.66
2023-05-14T21:41:04.748Z,16.60
2023-05-14T21:43:32.998Z,16.60
2023-05-14T21:46:01.174Z,16.58
2023-05-14T21:48:29.937Z,16.57
2023-05-14T21:50:59.544Z,16.52
2023-05-14T21:53:27.640Z,16.43
2023-05-14T21:55:56.068Z,16.33
2023-05-14T21:58:24.405Z,16.24
2023-05-14T22:00:52.818Z,16.17
2023-05-14T22:03:21.005Z,16.12
2023-05-14T22:05:49.289Z,16.11
2023-05-14T22:08:18.858Z,16.08
2023-05-14T22:10:48.261Z,16.07
2023-05-14T22:13:16.335Z,16.02
2023-05-14T22:15:44.382Z,15.98
2023-05-14T22:18:13.302Z,15.94
2023-05-14T22:20:41.462Z,15.91
2023-05-14T22:23:09.604Z,15.91
2023-05-14T22:25:39.279Z,15.90
2023-05-14T22:28:07.491Z,15.82
2023-05-14T22:30:35.632Z,15.77
2023-05-14T22:33:03.816Z,15.67
2023-05-14T22:35:32.001Z,15.61
2023-05-14T22:38:00.129Z,15.60
2023-05-14T22:40:28.274Z,15.58
2023-05-14T22:42:57.811Z,15.58
2023-05-14T22:45:27.950Z,15.54
2023-05-14T22:47:56.089Z,15.45
2023-05-14T22:50:24.252Z,15.41
2023-05-14T22:52:52.408Z,15.46
2023-05-14T22:55:21.298Z,15.48
2023-05-14T22:57:49.529Z,15.49
2023-05-14T23:00:19.457Z,15.50
2023-05-14T23:02:47.721Z,15.49
2023-05-14T23:05:15.997Z,15.49
2023-05-14T23:07:44.230Z,15.49
2023-05-14T23:10:12.905Z,15.47
2023-05-14T23:12:41.075Z,15.39
2023-05-14T23:15:09.734Z,15.29
2023-05-14T23:17:39.719Z,15.27
2023-05-14T23:20:11.001Z,15.23
2023-05-14T23:22:39.154Z,15.26
2023-05-14T23:25:08.221Z,15.29
2023-05-14T23:27:36.608Z,15.32
2023-05-14T23:30:05.034Z,15.37
2023-05-14T23:32:33.268Z,15.43
2023-05-14T23:35:03.125Z,15.48
2023-05-14T23:37:31.469Z,15.49
2023-05-14T23:39:59.508Z,15.49
2023-05-14T23:42:27.667Z,15.48
2023-05-14T23:44:55.779Z,15.47
2023-05-14T23:47:23.905Z,15.46
2023-05-14T23:49:52.112Z,15.47
2023-05-14T23:52:21.624Z,15.46
2023-05-14T23:54:49.781Z,15.47
2023-05-14T23:57:17.879Z,15.46
2023-05-14T23:59:46.242Z,15.45
